Terminal Aerodrome Forecast
Issued by NWS

Home | Current Version | Previous Version | Text Only | Print | Product List | Glossary On
Versions: 1 2 3 4 5 6 7 8 9 10 11 12 13 14
000
FTUS44 KTSA 291700
TAFXNA
TAF
KXNA 291720Z 2918/3018 20010KT P6SM SCT035 BKN040 BKN060
      TEMPO 2920/2924 3SM -TSRA BKN050CB
     FM300300 18007KT P6SM BKN250=

USA.gov is the U.S. government's official web portal to all federal, state and local government web resources and services.